createdAt,value
2023-10-23T00:08:56.996Z,3.207
2023-10-23T00:24:39.478Z,3.207
2023-10-23T00:40:21.639Z,3.207
2023-10-23T00:56:03.950Z,3.207
2023-10-23T01:11:46.529Z,3.207
2023-10-23T01:27:29.301Z,3.209
2023-10-23T01:43:12.242Z,3.207
2023-10-23T01:58:54.726Z,3.207
2023-10-23T02:14:37.004Z,3.21
2023-10-23T02:46:01.855Z,3.21
2023-10-23T03:01:44.717Z,3.21
2023-10-23T03:17:27.066Z,3.21
2023-10-23T03:33:09.882Z,3.21
2023-10-23T03:48:52.810Z,3.21
2023-10-23T04:04:35.652Z,3.21
2023-10-23T04:20:18.478Z,3.209
2023-10-23T04:36:00.663Z,3.207
2023-10-23T04:51:43.582Z,3.207
2023-10-23T05:07:26.472Z,3.207
2023-10-23T05:23:09.366Z,3.206
2023-10-23T05:54:35.169Z,3.206
2023-10-23T06:10:18.171Z,3.207
2023-10-23T06:26:00.750Z,3.209
2023-10-23T06:41:43.443Z,3.217
2023-10-23T06:57:26.010Z,3.22
2023-10-23T07:13:08.592Z,3.227
2023-10-23T07:28:50.471Z,3.231
2023-10-23T07:44:32.838Z,3.239
2023-10-23T08:00:14.957Z,3.242
2023-10-23T08:15:57.280Z,3.246
2023-10-23T08:31:40.287Z,3.247
2023-10-23T08:47:23.169Z,3.253
2023-10-23T09:03:05.303Z,3.254
2023-10-23T09:18:47.656Z,3.279
2023-10-23T09:34:30.288Z,3.282
2023-10-23T09:35:17.583Z,3.27
2023-10-23T09:50:59.814Z,3.26
2023-10-23T10:06:42.698Z,3.253
2023-10-23T10:22:24.864Z,3.246
2023-10-23T10:53:49.154Z,3.238
2023-10-23T11:09:31.429Z,3.294
2023-10-23T11:25:13.709Z,3.282
2023-10-23T11:40:55.814Z,3.272
2023-10-23T11:56:38.588Z,3.265
2023-10-23T12:12:20.987Z,3.259
2023-10-23T12:28:03.104Z,3.253
2023-10-23T12:43:45.489Z,3.249
2023-10-23T12:59:27.595Z,3.245
2023-10-23T13:15:10.452Z,3.242
2023-10-23T13:30:52.656Z,3.238
2023-10-23T13:46:34.962Z,3.387
2023-10-23T14:02:17.798Z,3.365
2023-10-23T14:18:00.628Z,3.35
2023-10-23T14:33:43.208Z,3.336
2023-10-23T14:49:25.483Z,3.324
2023-10-23T15:05:08.144Z,3.299
2023-10-23T15:20:50.992Z,3.29
2023-10-23T15:36:33.498Z,3.282
2023-10-23T15:52:15.685Z,3.275
2023-10-23T16:07:57.968Z,3.268
2023-10-23T16:23:40.144Z,3.261
2023-10-23T16:39:22.427Z,3.257
2023-10-23T16:55:05.382Z,3.25
2023-10-23T17:10:48.212Z,3.246
2023-10-23T17:26:30.357Z,3.242
2023-10-23T17:42:13.426Z,3.238
2023-10-23T17:57:55.764Z,3.236
2023-10-23T18:13:37.868Z,3.234
2023-10-23T18:29:20.598Z,3.231
2023-10-23T18:45:02.914Z,3.229
2023-10-23T19:00:45.347Z,3.227
2023-10-23T19:16:27.802Z,3.225
2023-10-23T19:32:10.823Z,3.224
2023-10-23T19:47:53.185Z,3.223
2023-10-23T20:03:35.719Z,3.221
2023-10-23T20:19:18.312Z,3.22
2023-10-23T20:35:00.218Z,3.213
2023-10-23T20:50:43.241Z,3.212
2023-10-23T21:06:25.660Z,3.212
2023-10-23T21:22:08.472Z,3.212
2023-10-23T21:37:51.376Z,3.212
2023-10-23T21:53:33.486Z,3.218
2023-10-23T22:09:15.917Z,3.218
2023-10-23T22:24:58.215Z,3.218
2023-10-23T22:40:41.244Z,3.218
2023-10-23T22:56:23.525Z,3.218
2023-10-23T23:12:05.956Z,3.218
2023-10-23T23:27:48.733Z,3.218
2023-10-23T23:43:30.862Z,3.218
2023-10-23T23:59:13.125Z,3.218
